Pineville, SC (29468)

6:08 PM EDT on April 26, 2017 (GMT -0400)
Bonneau Beach | | Change Station
Active Advisory: Flood Warning

Elev 105 ft 33.33 °N, 80.00 °W | Updated 13 seconds ago

Partly Cloudy
Partly Cloudy
80.8 °F
Feels Like 83 °F
N
12.8
Wind Variable Wind from South
Gusts 15.0 mph

Today
High -- | Low -- °F
--% Chance of Precip.
Yesterday
High -- | Low -- °F
Precip. -- in
Pressure 29.80 in
Visibility 10.0 miles
Clouds Mostly Cloudy 5500 ft
Heat Index 83 °F
Dew Point 66 °F
Humidity 61%
Rainfall 0.00 in
Snow Depth Not available.
6:36 AM 7:59 PM
New Moon, 0% visible
METAR KMNI 262155Z AUTO 20015G21KT 170V230 10SM BKN055 27/15 A2980 RMK AO2
Pressure 29.80 in
Visibility 10.0 miles
Clouds Mostly Cloudy 5500 ft
Heat Index 83 °F
Dew Point 66 °F
Humidity 61%
Rainfall 0.00 in
Snow Depth Not available.
6:36 AM 7:59 PM
New Moon, 0% visible
METAR KMNI 262155Z AUTO 20015G21KT 170V230 10SM BKN055 27/15 A2980 RMK AO2

Get Your Daily Forecast Email!

Thanks for signing up!

Be on the lookout for a verification email in your inbox.

You'll start receiving severe weather alerts in your inbox..

×

10-Day Weather Forecast

Almanac

Astronomy

Apr. 26, 2017 Rise Set
Actual Time
Civil Twilight
Nautical Twilight
Astronomical Twilight
Moon
Length of Visible Light
Length of Day
Tomorrow will be .
, % of the Moon is Illuminated

Today's Extremes

State Highs State Lows

Community

WunderPhotos

WunderBlog® & News

Nearby

Air Quality

  Air Quality AQ Index Pollutant
Not available.

Snow Depth

Station Depth Elevation

Earthquake Activity

City Distance Mag. Time & Date
Minimum magnitude displayed is 2.5.

Coastal Water Temperatures

Place Temperature

Stations

Nearby Weather Stations

Station Location Temp. Windchill Dew Point Humidity Wind Precip. Elev Updated Type
                   

Watches & Warnings

Flood Warning
Issued: 10:02 AM EDT Apr. 26, 2017 – National Weather Service

The Flood Warning continues for
the Santee river near Jamestown.
* At 9 am Wednesday the stage was 10.0 feet.
* Flood stage is 10.0 feet.
* Minor flooding is forecast.
* Forecast, rise above flood stage by late this morning and continue
to rise to near 10.5 feet by early Friday afternoon. Additional
rises are possible thereafter.
* At 10.0 feet, water covers numerous logging roads and inundates
Timber land adjacent to the river. Most access points to wee tee
state Forest are cut off.


Lat... Lon 3347 8002 3354 7998 3325 7937 3321 7938
          3320 7951 3329 7976